Sand Heads, British Columbia

1:31 AM PDT on August 26, 2016 (GMT -0700)
Vancouver International | | Change Station

Elev 13 ft 49.18 °N, 123.17 °W | Updated 31 minutes ago

Clear
Clear
64 °F
Feels Like 64 °F
N
0
Wind Variable Wind from North

Today
High -- | Low -- °F
--% Chance of Precip.
Yesterday
High -- | Low -- °F
Precip. -- in
Pressure 29.96 in
Visibility 30.0 miles
Clouds Clear
Dew Point 59 °F
Humidity 83%
Rainfall 0.00 in
Snow Depth Not available.
6:21 AM 8:06 PM
Last Quarter, 37% visible
METAR CYVR 260800Z 00000KT 30SM SKC 18/15 A2995 RMK SLP144 DENSITY ALT 300FT
Pressure 29.96 in
Visibility 30.0 miles
Clouds Clear
Dew Point 59 °F
Humidity 83%
Rainfall 0.00 in
Snow Depth Not available.
6:21 AM 8:06 PM
Last Quarter, 37% visible
METAR CYVR 260800Z 00000KT 30SM SKC 18/15 A2995 RMK SLP144 DENSITY ALT 300FT

10-Day Weather Forecast

Almanac

Astronomy

Aug. 26, 2016 Rise Set
Actual Time
Civil Twilight
Nautical Twilight
Astronomical Twilight
Moon
Length of Visible Light
Length of Day
Tomorrow will be .
, % of the Moon is Illuminated

Today's Extremes

Country Highs Country Lows

Community

WunderPhotos

Upload Photos

1,935,062 photos uploaded!

WunderBlog® & News

Nearby

Air Quality

  Air Quality AQ Index Pollutant
Not available.

Snow Depth

Station Depth Elevation

Earthquake Activity

City Distance Mag. Time & Date
Minimum magnitude displayed is 2.5.

Coastal Water Temperatures

Place Temperature

Stations

Nearby Weather Stations

Station Location Temp. Windchill Dew Point Humidity Wind Precip. Elev Updated Type
                   

Watches & Warnings

There are currently no watches in effect.